Time;durP1;ratioP1;P1;durP2;ratioP2;P2;SDS_P1;SDS_P2;PMS_P1;PMS_P2;Temp;Humidity;BMP_temperature;BMP_pressure;BME280_temperature;BME280_humidity;BME280_pressure;Samples;Min_cycle;Max_cycle;Signal;HPM_P1;HPM_P2
2023/04/12 00:01:04;;;;;;;2.13;1.80;;;8.90;98.00;;;;;;5053109;28;20960;-66
2023/04/12 00:03:33;;;;;;;2.67;1.70;;;9.00;98.00;;;;;;5053000;28;20462;-67
2023/04/12 00:06:02;;;;;;;3.80;2.10;;;8.90;98.00;;;;;;5052978;28;20489;-66
2023/04/12 00:08:33;;;;;;;4.87;2.60;;;8.80;98.00;;;;;;5053067;28;20511;-66
2023/04/12 00:11:03;;;;;;;3.93;1.90;;;8.90;98.00;;;;;;5053199;28;20452;-67
2023/04/12 00:13:30;;;;;;;2.40;1.87;;;9.00;98.00;;;;;;5052886;28;20503;-67
2023/04/12 00:15:58;;;;;;;1.87;1.50;;;9.00;98.00;;;;;;5053033;28;20883;-66
2023/04/12 00:18:26;;;;;;;2.03;1.80;;;8.90;98.00;;;;;;5052689;28;20550;-66
2023/04/12 00:20:53;;;;;;;3.77;1.80;;;9.00;98.00;;;;;;5052646;28;20458;-66
2023/04/12 00:23:20;;;;;;;2.47;1.80;;;9.10;98.00;;;;;;5052839;28;20857;-66
2023/04/12 00:25:48;;;;;;;6.37;1.93;;;9.10;98.00;;;;;;5052484;28;20560;-67
2023/04/12 00:28:16;;;;;;;4.13;2.00;;;9.20;98.00;;;;;;5052534;28;20865;-66
2023/04/12 00:30:43;;;;;;;3.57;1.80;;;9.20;98.00;;;;;;5052629;28;20466;-66
2023/04/12 00:33:11;;;;;;;3.50;1.70;;;9.20;98.00;;;;;;5051391;28;20464;-66
2023/04/12 00:35:39;;;;;;;4.03;2.30;;;9.20;98.00;;;;;;5052377;28;21021;-65
2023/04/12 00:38:09;;;;;;;3.30;2.33;;;9.20;98.00;;;;;;5052510;28;20874;-66
2023/04/12 00:40:36;;;;;;;3.63;2.10;;;8.90;98.00;;;;;;5052329;28;21030;-66
2023/04/12 00:43:06;;;;;;;3.60;1.80;;;9.00;98.00;;;;;;5052246;28;20514;-66
2023/04/12 00:45:33;;;;;;;2.23;1.83;;;8.90;98.00;;;;;;5052387;28;20488;-66
2023/04/12 00:48:01;;;;;;;4.17;2.13;;;8.80;98.00;;;;;;5050910;28;20489;-66
2023/04/12 00:50:31;;;;;;;5.63;1.87;;;8.90;98.00;;;;;;5052257;28;20477;-65
2023/04/12 00:52:58;;;;;;;3.73;2.10;;;8.90;98.00;;;;;;5052194;28;20981;-66
2023/04/12 00:55:27;;;;;;;3.87;2.00;;;8.80;98.00;;;;;;5052317;28;20516;-66
2023/04/12 00:57:54;;;;;;;2.50;1.90;;;8.70;98.00;;;;;;5052099;28;20499;-66
2023/04/12 01:00:23;;;;;;;2.70;1.63;;;8.60;98.00;;;;;;5052286;28;20477;-67
2023/04/12 01:02:50;;;;;;;2.53;1.60;;;8.60;98.00;;;;;;5051974;28;20468;-66
2023/04/12 01:05:21;;;;;;;2.57;1.90;;;8.60;98.00;;;;;;5051941;28;20921;-66
2023/04/12 01:07:55;;;;;;;2.80;1.83;;;8.80;98.00;;;;;;5051708;28;20553;-66
2023/04/12 01:10:33;;;;;;;2.67;1.70;;;9.00;98.00;;;;;;5051934;28;20516;-66
2023/04/12 01:13:10;;;;;;;2.27;1.80;;;9.00;98.00;;;;;;5051705;28;20551;-66
2023/04/12 01:15:48;;;;;;;4.40;1.70;;;9.10;98.00;;;;;;5051467;28;20461;-66
2023/04/12 01:18:22;;;;;;;1.90;1.70;;;9.30;98.00;;;;;;5051637;28;20512;-67
2023/04/12 01:20:56;;;;;;;1.90;1.30;;;9.40;98.00;;;;;;5051701;28;20465;-67
2023/04/12 01:23:56;;;;;;;1.40;1.33;;;9.40;98.00;;;;;;5051899;28;20515;-66
2023/04/12 01:26:33;;;;;;;2.60;1.50;;;9.50;98.00;;;;;;5046759;28;21084;-66
2023/04/12 01:29:04;;;;;;;1.67;1.20;;;9.60;98.00;;;;;;5051455;28;20515;-66
2023/04/12 01:31:33;;;;;;;2.07;1.33;;;9.50;98.00;;;;;;5051640;28;20519;-67
2023/04/12 01:34:02;;;;;;;2.47;1.53;;;9.50;98.00;;;;;;5051292;28;20458;-67
2023/04/12 01:36:31;;;;;;;1.50;1.33;;;9.40;98.00;;;;;;5051574;28;20453;-67
2023/04/12 01:38:59;;;;;;;3.03;1.83;;;9.40;98.00;;;;;;5051198;28;20491;-66
2023/04/12 01:41:26;;;;;;;1.93;1.70;;;9.40;98.00;;;;;;5051566;28;20578;-66
2023/04/12 01:43:53;;;;;;;3.00;2.20;;;9.40;98.00;;;;;;5049940;28;20468;-66
2023/04/12 01:46:23;;;;;;;1.77;1.50;;;9.40;98.00;;;;;;5051371;28;20536;-66
2023/04/12 01:48:53;;;;;;;2.23;1.97;;;9.30;98.00;;;;;;5051252;28;20958;-66
2023/04/12 01:51:32;;;;;;;2.70;1.80;;;9.30;98.00;;;;;;5051599;28;20476;-66
2023/04/12 01:54:10;;;;;;;1.87;1.43;;;9.20;98.00;;;;;;5051194;28;20470;-66
2023/04/12 01:56:39;;;;;;;1.83;1.60;;;9.10;98.00;;;;;;5050092;28;20468;-66
2023/04/12 01:59:07;;;;;;;3.10;1.60;;;9.10;98.00;;;;;;5050782;28;20453;-66
2023/04/12 02:01:36;;;;;;;2.40;1.40;;;9.10;98.00;;;;;;5050132;28;20457;-65
2023/04/12 02:04:06;;;;;;;2.03;1.40;;;9.10;98.00;;;;;;5051085;28;20454;-66
2023/04/12 02:06:34;;;;;;;3.27;1.63;;;9.20;98.00;;;;;;5051123;28;20486;-66
2023/04/12 02:09:04;;;;;;;4.50;1.73;;;9.10;98.00;;;;;;5050933;28;20470;-65
2023/04/12 02:11:31;;;;;;;1.60;1.40;;;9.10;98.00;;;;;;5051048;28;20453;-66
2023/04/12 02:13:58;;;;;;;2.27;1.40;;;9.10;98.00;;;;;;5050855;28;20504;-65
2023/04/12 02:16:28;;;;;;;1.80;1.30;;;9.00;98.00;;;;;;5051058;28;20880;-66
2023/04/12 02:18:57;;;;;;;1.70;1.43;;;9.00;98.00;;;;;;5050748;28;20539;-66
2023/04/12 02:21:25;;;;;;;1.30;1.10;;;8.90;98.00;;;;;;5050944;28;20453;-65
2023/04/12 02:23:52;;;;;;;6.90;2.27;;;8.90;98.00;;;;;;5049629;28;20492;-67
2023/04/12 02:26:19;;;;;;;3.60;2.10;;;9.00;98.00;;;;;;5050657;28;20535;-66
2023/04/12 02:28:46;;;;;;;2.20;1.60;;;9.00;98.00;;;;;;5050665;28;20464;-66
2023/04/12 02:31:14;;;;;;;2.47;1.57;;;9.00;98.00;;;;;;5050728;28;20448;-65
2023/04/12 02:33:42;;;;;;;2.70;1.40;;;9.10;98.00;;;;;;5051017;28;20489;-67
2023/04/12 02:36:11;;;;;;;2.20;1.80;;;9.10;98.00;;;;;;5050588;28;20509;-66
2023/04/12 02:38:38;;;;;;;1.60;1.40;;;9.00;98.00;;;;;;5050814;28;20460;-67
2023/04/12 02:41:06;;;;;;;3.80;1.53;;;9.00;98.00;;;;;;5049670;28;20537;-66
2023/04/12 02:43:33;;;;;;;2.07;1.47;;;8.90;98.00;;;;;;5050732;28;21014;-66
2023/04/12 02:46:00;;;;;;;2.07;1.30;;;8.90;98.00;;;;;;5051028;28;20488;-65
2023/04/12 02:48:27;;;;;;;2.67;1.87;;;8.90;98.00;;;;;;5050955;28;20947;-65
2023/04/12 02:50:56;;;;;;;1.40;1.27;;;9.00;98.00;;;;;;5050851;28;20478;-66
2023/04/12 02:53:24;;;;;;;10.53;1.97;;;8.90;98.00;;;;;;5050913;28;20462;-66
2023/04/12 02:55:51;;;;;;;3.10;1.70;;;8.80;98.00;;;;;;5051700;28;20450;-66
2023/04/12 02:58:18;;;;;;;3.90;1.93;;;8.90;98.00;;;;;;5051229;28;20457;-65
2023/04/12 03:00:48;;;;;;;11.07;1.77;;;8.90;98.00;;;;;;5051252;28;21013;-65
2023/04/12 03:03:16;;;;;;;3.73;1.80;;;8.90;98.00;;;;;;5051606;28;20466;-66
2023/04/12 03:05:48;;;;;;;5.00;1.70;;;9.00;98.00;;;;;;5049209;28;20479;-66
2023/04/12 03:08:20;;;;;;;2.37;1.63;;;9.10;98.00;;;;;;5050523;28;20458;-67
2023/04/12 03:10:49;;;;;;;1.90;1.53;;;9.00;98.00;;;;;;5051646;28;20460;-66
2023/04/12 03:13:16;;;;;;;3.07;1.80;;;8.90;98.00;;;;;;5053118;28;20471;-66
2023/04/12 03:15:43;;;;;;;2.50;1.60;;;8.70;98.00;;;;;;5054031;28;20453;-66
2023/04/12 03:18:10;;;;;;;3.00;2.03;;;8.70;98.00;;;;;;5054298;28;20554;-66
2023/04/12 03:20:40;;;;;;;2.57;1.50;;;8.60;98.00;;;;;;5054039;28;20893;-66
2023/04/12 03:23:08;;;;;;;2.57;1.53;;;8.70;98.00;;;;;;5053889;28;20518;-65
2023/04/12 03:25:36;;;;;;;2.03;1.33;;;8.70;98.00;;;;;;5053703;28;20500;-65
2023/04/12 03:28:05;;;;;;;12.60;1.90;;;9.00;98.00;;;;;;5053244;28;20514;-66
2023/04/12 03:30:32;;;;;;;4.50;2.33;;;9.00;98.00;;;;;;5053684;28;20473;-66
2023/04/12 03:32:59;;;;;;;3.60;1.70;;;9.10;98.00;;;;;;5053660;28;20457;-67
2023/04/12 03:35:26;;;;;;;3.77;1.53;;;9.00;98.00;;;;;;5053588;28;20459;-65
2023/04/12 03:37:53;;;;;;;1.83;1.50;;;8.90;98.00;;;;;;5053622;28;20964;-66
2023/04/12 03:40:22;;;;;;;2.00;1.53;;;8.80;98.00;;;;;;5053390;28;20442;-65
2023/04/12 03:42:49;;;;;;;2.40;1.53;;;8.80;98.00;;;;;;5052490;28;20643;-66
2023/04/12 03:45:17;;;;;;;2.33;1.60;;;8.90;98.00;;;;;;5053683;28;20519;-66
2023/04/12 03:47:44;;;;;;;11.30;1.97;;;8.90;98.00;;;;;;5053674;28;20960;-65
2023/04/12 03:50:19;;;;;;;2.00;1.57;;;8.80;98.00;;;;;;5053242;28;20459;-66
2023/04/12 03:52:46;;;;;;;3.53;1.87;;;8.70;98.00;;;;;;5053477;28;20461;-66
2023/04/12 03:55:17;;;;;;;3.30;2.20;;;8.60;98.00;;;;;;5053253;28;20460;-66
2023/04/12 03:57:45;;;;;;;1.97;1.50;;;8.60;98.00;;;;;;5053209;28;20539;-66
2023/04/12 04:00:13;;;;;;;1.83;1.57;;;8.80;98.00;;;;;;5053108;28;20533;-66
2023/04/12 04:02:42;;;;;;;2.27;1.80;;;8.70;98.00;;;;;;5053358;28;20465;-66
2023/04/12 04:05:11;;;;;;;1.80;1.63;;;8.70;98.00;;;;;;5052982;28;20545;-65
2023/04/12 04:07:41;;;;;;;2.20;1.50;;;8.70;98.00;;;;;;5052955;28;20481;-65
2023/04/12 04:10:10;;;;;;;2.37;1.57;;;8.70;98.00;;;;;;5051689;28;20450;-66
2023/04/12 04:12:37;;;;;;;2.80;1.80;;;8.70;98.00;;;;;;5053202;28;20465;-67
2023/04/12 04:15:05;;;;;;;3.00;1.90;;;8.70;98.00;;;;;;5034976;28;20542;-66
2023/04/12 04:17:32;;;;;;;1.90;1.53;;;8.70;98.00;;;;;;5052745;28;20468;-66
2023/04/12 04:20:01;;;;;;;2.03;1.40;;;8.70;98.00;;;;;;5051524;28;20457;-66
2023/04/12 04:22:28;;;;;;;3.27;1.77;;;8.80;98.00;;;;;;5052521;28;20868;-66
2023/04/12 04:24:55;;;;;;;2.70;1.60;;;8.80;98.00;;;;;;5052807;28;20628;-66
2023/04/12 04:27:23;;;;;;;4.20;2.10;;;8.90;98.00;;;;;;5052530;28;20584;-66
2023/04/12 04:29:58;;;;;;;3.03;1.70;;;9.00;98.00;;;;;;5052273;28;21019;-65
2023/04/12 04:32:25;;;;;;;2.60;1.43;;;9.10;98.00;;;;;;5052972;28;20456;-65
2023/04/12 04:34:52;;;;;;;3.73;1.77;;;9.20;98.00;;;;;;5052416;28;20449;-66
2023/04/12 04:37:23;;;;;;;1.80;1.70;;;9.00;98.00;;;;;;5052694;28;20527;-66
2023/04/12 04:39:52;;;;;;;2.53;1.70;;;8.90;98.00;;;;;;5052516;28;20467;-66
2023/04/12 04:42:20;;;;;;;2.70;1.60;;;8.80;98.00;;;;;;5052592;28;20458;-65
2023/04/12 04:44:49;;;;;;;1.70;1.50;;;8.60;98.00;;;;;;5051073;28;20658;-66
2023/04/12 04:47:17;;;;;;;3.63;1.57;;;8.50;98.00;;;;;;5052440;28;20488;-66
2023/04/12 04:49:46;;;;;;;3.17;1.60;;;8.60;98.00;;;;;;5052423;28;20448;-66
2023/04/12 04:52:17;;;;;;;2.83;1.90;;;8.70;98.00;;;;;;5052434;28;20458;-66
2023/04/12 04:54:46;;;;;;;1.80;1.37;;;8.90;98.00;;;;;;5034944;28;20470;-65
2023/04/12 04:57:13;;;;;;;3.43;1.53;;;8.80;98.00;;;;;;5052160;28;20465;-66
2023/04/12 04:59:40;;;;;;;1.80;1.33;;;8.70;98.00;;;;;;5052072;28;20456;-66
2023/04/12 05:02:07;;;;;;;1.97;1.50;;;8.60;98.00;;;;;;5052235;28;20463;-66
2023/04/12 05:04:34;;;;;;;6.20;1.60;;;8.70;98.00;;;;;;5051944;28;20461;-66
2023/04/12 05:07:01;;;;;;;2.43;1.70;;;8.70;98.00;;;;;;5051748;28;20494;-65
2023/04/12 05:09:29;;;;;;;2.63;1.60;;;8.60;98.00;;;;;;5051825;28;20461;-66
2023/04/12 05:11:58;;;;;;;1.60;1.60;;;8.70;98.00;;;;;;5051765;28;20455;-66
2023/04/12 05:14:25;;;;;;;4.90;1.90;;;8.80;98.00;;;;;;5051698;28;20454;-65
2023/04/12 05:16:53;;;;;;;3.13;1.87;;;8.70;98.00;;;;;;5051641;28;20459;-67
2023/04/12 05:19:20;;;;;;;4.13;2.00;;;8.80;98.00;;;;;;5051597;28;20952;-65
2023/04/12 05:21:47;;;;;;;4.43;1.80;;;8.90;98.00;;;;;;5051664;28;20452;-65
2023/04/12 05:24:15;;;;;;;1.80;1.30;;;8.80;98.00;;;;;;5051562;28;20484;-65
2023/04/12 05:26:42;;;;;;;4.33;2.13;;;8.80;98.00;;;;;;5051614;28;20538;-66
2023/04/12 05:29:13;;;;;;;2.10;1.70;;;8.90;98.00;;;;;;5051297;28;20506;-66
2023/04/12 05:31:41;;;;;;;1.83;1.43;;;9.00;98.00;;;;;;5051842;28;20516;-66
2023/04/12 05:34:08;;;;;;;3.20;1.50;;;9.10;98.00;;;;;;5049908;28;20455;-66
2023/04/12 05:36:35;;;;;;;2.17;1.77;;;9.00;98.00;;;;;;5051488;28;20519;-66
2023/04/12 05:39:02;;;;;;;1.67;1.50;;;9.10;98.00;;;;;;5050042;28;20457;-66
2023/04/12 05:41:30;;;;;;;2.80;2.10;;;9.10;98.00;;;;;;5051271;28;20496;-66
2023/04/12 05:43:57;;;;;;;3.63;1.97;;;9.10;98.00;;;;;;5050059;28;20494;-66
2023/04/12 05:46:25;;;;;;;4.43;1.80;;;9.20;98.00;;;;;;5050407;28;20477;-66
2023/04/12 05:49:01;;;;;;;4.63;1.40;;;9.20;98.00;;;;;;5051650;28;20458;-66
2023/04/12 05:51:28;;;;;;;2.60;1.60;;;9.20;98.00;;;;;;5051521;28;20459;-66
2023/04/12 05:53:55;;;;;;;2.87;2.00;;;9.30;98.00;;;;;;5051407;28;20453;-66
2023/04/12 05:56:22;;;;;;;3.40;2.00;;;9.30;98.00;;;;;;5051174;28;20464;-65
2023/04/12 05:58:50;;;;;;;2.63;1.97;;;9.30;98.00;;;;;;5051105;28;20454;-66
2023/04/12 06:01:18;;;;;;;2.13;1.53;;;9.30;98.00;;;;;;5051612;28;20473;-62
2023/04/12 06:03:48;;;;;;;2.13;1.70;;;9.20;98.00;;;;;;5051266;28;20976;-62
2023/04/12 06:06:15;;;;;;;4.50;1.87;;;9.20;98.00;;;;;;5051275;28;20484;-61
2023/04/12 06:08:42;;;;;;;2.43;1.70;;;9.30;98.00;;;;;;5051061;28;20460;-62
2023/04/12 06:11:10;;;;;;;1.70;1.50;;;9.30;98.00;;;;;;5051157;28;20457;-63
2023/04/12 06:13:38;;;;;;;7.50;1.97;;;9.20;98.00;;;;;;5049691;28;20468;-62
2023/04/12 06:16:05;;;;;;;3.93;1.97;;;9.20;98.00;;;;;;5051201;28;20935;-62
2023/04/12 06:18:33;;;;;;;4.33;1.90;;;9.10;98.00;;;;;;5050783;28;20451;-62
2023/04/12 06:21:01;;;;;;;3.33;2.10;;;9.10;98.00;;;;;;5050974;28;20442;-61
2023/04/12 06:23:28;;;;;;;3.00;1.67;;;9.20;98.00;;;;;;5050999;28;20832;-65
2023/04/12 06:25:55;;;;;;;3.00;1.70;;;9.20;98.00;;;;;;5050768;28;20467;-64
2023/04/12 06:28:22;;;;;;;2.90;1.57;;;9.30;98.00;;;;;;5050490;28;20480;-64
2023/04/12 06:30:50;;;;;;;2.03;1.47;;;9.30;98.00;;;;;;5049529;28;20514;-65
2023/04/12 06:33:21;;;;;;;2.70;1.60;;;9.30;98.00;;;;;;5050862;28;20873;-64
2023/04/12 06:35:48;;;;;;;2.70;2.00;;;9.30;98.00;;;;;;5049527;28;20456;-64
2023/04/12 06:38:17;;;;;;;3.63;1.70;;;9.40;98.00;;;;;;5050830;28;20815;-64
2023/04/12 06:40:44;;;;;;;2.40;1.90;;;9.40;98.00;;;;;;5050811;28;20851;-63
2023/04/12 06:43:13;;;;;;;2.00;1.60;;;9.40;98.00;;;;;;5050705;28;20454;-66
2023/04/12 06:45:40;;;;;;;2.60;1.53;;;9.40;98.00;;;;;;5053479;28;20465;-63
2023/04/12 06:48:07;;;;;;;3.63;1.93;;;9.40;98.00;;;;;;5054705;28;20563;-63
2023/04/12 06:50:35;;;;;;;2.30;1.60;;;9.50;98.00;;;;;;5054532;28;20499;-64
2023/04/12 06:53:03;;;;;;;3.47;1.60;;;9.50;98.00;;;;;;5054436;28;20959;-64
2023/04/12 06:55:32;;;;;;;2.20;2.00;;;9.50;98.00;;;;;;5054346;28;20476;-63
2023/04/12 06:58:00;;;;;;;2.10;1.60;;;9.50;98.00;;;;;;5054276;28;20527;-63
2023/04/12 07:00:27;;;;;;;2.20;1.57;;;9.60;98.00;;;;;;5054223;28;20998;-62
2023/04/12 07:02:55;;;;;;;2.83;1.73;;;9.60;98.00;;;;;;5054271;28;20458;-62
2023/04/12 07:05:23;;;;;;;2.63;1.80;;;9.70;98.00;;;;;;5054441;28;20458;-62
2023/04/12 07:07:50;;;;;;;1.93;1.40;;;9.70;98.00;;;;;;5054293;28;21062;-62
2023/04/12 07:10:17;;;;;;;2.97;2.00;;;9.70;98.00;;;;;;5045395;28;21010;-62
2023/04/12 07:12:46;;;;;;;2.67;1.67;;;9.70;98.00;;;;;;5054120;28;20475;-62
2023/04/12 07:15:13;;;;;;;2.03;1.40;;;9.70;98.00;;;;;;5045962;28;20457;-61
2023/04/12 07:17:41;;;;;;;3.27;2.03;;;9.60;98.00;;;;;;5054053;28;20464;-62
2023/04/12 07:20:09;;;;;;;1.70;1.30;;;9.70;98.00;;;;;;5048617;28;20869;-62
2023/04/12 07:22:36;;;;;;;1.80;1.53;;;9.70;98.00;;;;;;5053800;28;20515;-62
2023/04/12 07:25:04;;;;;;;1.50;1.27;;;9.80;98.00;;;;;;5053857;28;20457;-62
2023/04/12 07:27:31;;;;;;;1.40;1.40;;;9.80;98.00;;;;;;5045676;28;20490;-63
2023/04/12 07:30:00;;;;;;;2.53;1.47;;;9.90;98.00;;;;;;5053521;28;20997;-62
2023/04/12 07:32:27;;;;;;;1.70;1.50;;;9.90;98.00;;;;;;5053526;28;20454;-62
2023/04/12 07:34:54;;;;;;;1.33;1.30;;;10.00;98.00;;;;;;5052256;28;20462;-64
2023/04/12 07:37:21;;;;;;;1.90;1.30;;;10.10;98.00;;;;;;5040569;28;20489;-64
2023/04/12 07:39:48;;;;;;;3.03;1.67;;;10.20;98.00;;;;;;5033311;28;20471;-64
2023/04/12 07:42:15;;;;;;;1.90;1.33;;;10.20;98.00;;;;;;5033488;28;20462;-63
2023/04/12 07:44:43;;;;;;;1.80;1.50;;;10.30;98.00;;;;;;5032373;28;21019;-63
2023/04/12 07:47:12;;;;;;;1.50;1.27;;;10.30;98.00;;;;;;5033379;28;20490;-64
2023/04/12 07:49:39;;;;;;;1.57;1.40;;;10.30;98.00;;;;;;5033385;28;20462;-63
2023/04/12 07:52:06;;;;;;;1.40;1.20;;;10.30;98.00;;;;;;5032348;28;20536;-64
2023/04/12 07:54:33;;;;;;;3.03;1.40;;;10.30;98.00;;;;;;5033128;28;20957;-65
2023/04/12 07:57:03;;;;;;;1.40;1.20;;;10.30;98.00;;;;;;5032651;28;20948;-63
2023/04/12 07:59:30;;;;;;;1.77;1.20;;;10.20;98.00;;;;;;5033021;28;20552;-64
2023/04/12 08:01:57;;;;;;;2.53;1.57;;;10.20;98.00;;;;;;5033075;28;20545;-64
2023/04/12 08:04:27;;;;;;;1.30;1.20;;;10.20;98.00;;;;;;5033144;28;20467;-64
2023/04/12 08:06:55;;;;;;;1.40;1.40;;;10.20;98.00;;;;;;5032754;28;20549;-64
2023/04/12 08:09:23;;;;;;;1.50;1.27;;;10.30;98.00;;;;;;5033050;28;20465;-64
2023/04/12 08:11:50;;;;;;;1.40;1.30;;;10.30;98.00;;;;;;5032982;28;20494;-63
2023/04/12 08:14:18;;;;;;;1.50;1.10;;;10.30;98.00;;;;;;5032847;28;20467;-63
2023/04/12 08:16:45;;;;;;;1.93;1.37;;;10.40;98.00;;;;;;5031811;28;20458;-64
2023/04/12 08:19:12;;;;;;;1.40;1.30;;;10.40;98.00;;;;;;5032852;28;20461;-64
2023/04/12 08:21:40;;;;;;;1.77;1.10;;;10.40;98.00;;;;;;5032736;28;20510;-64
2023/04/12 08:24:08;;;;;;;3.87;1.30;;;10.40;98.00;;;;;;5032503;28;20960;-65
2023/04/12 08:26:36;;;;;;;1.93;1.20;;;10.40;98.00;;;;;;5032577;28;20574;-64
2023/04/12 08:29:04;;;;;;;1.20;1.20;;;10.50;98.00;;;;;;5032237;28;20488;-65
2023/04/12 08:31:32;;;;;;;1.80;1.40;;;10.60;98.00;;;;;;5031351;28;20737;-64
2023/04/12 08:33:59;;;;;;;2.63;1.57;;;10.60;98.00;;;;;;5032635;28;20451;-64
2023/04/12 08:36:27;;;;;;;5.17;1.30;;;10.60;98.00;;;;;;5032712;28;20913;-63
2023/04/12 08:38:58;;;;;;;1.60;1.30;;;10.60;98.00;;;;;;5032355;28;20458;-64
2023/04/12 08:41:26;;;;;;;1.53;1.10;;;10.60;98.00;;;;;;5032708;28;20458;-63
2023/04/12 08:43:54;;;;;;;1.83;1.43;;;10.70;98.00;;;;;;5032243;28;20536;-63
2023/04/12 08:46:22;;;;;;;1.50;1.40;;;10.70;98.00;;;;;;5032981;28;20459;-64
2023/04/12 08:48:52;;;;;;;1.47;1.20;;;10.70;98.00;;;;;;5031024;28;20489;-63
2023/04/12 08:51:22;;;;;;;1.63;1.20;;;10.70;98.00;;;;;;5032409;28;20480;-63
2023/04/12 08:53:51;;;;;;;1.50;1.20;;;10.70;98.00;;;;;;5031140;28;20464;-63
2023/04/12 08:56:22;;;;;;;2.20;1.50;;;10.70;98.00;;;;;;5032539;28;20538;-62
2023/04/12 08:58:51;;;;;;;1.80;1.30;;;10.70;98.00;;;;;;5032597;28;20487;-63
2023/04/12 09:01:20;;;;;;;1.60;1.20;;;10.80;98.00;;;;;;5032665;28;20461;-64
2023/04/12 09:03:47;;;;;;;1.33;1.20;;;10.80;98.00;;;;;;5032343;28;20537;-62
2023/04/12 09:06:14;;;;;;;1.67;1.30;;;10.80;98.00;;;;;;5032208;28;20459;-63
2023/04/12 09:09:00;;;;;;;1.30;1.23;;;11.00;98.00;;;;;;5032578;28;20770;-64
2023/04/12 09:11:29;;;;;;;1.53;1.37;;;11.00;98.00;;;;;;5032797;28;20474;-63
2023/04/12 09:13:57;;;;;;;1.97;1.40;;;11.00;98.00;;;;;;5032378;28;20472;-62
2023/04/12 09:16:39;;;;;;;2.40;1.50;;;11.00;98.00;;;;;;5032908;28;20527;-63
2023/04/12 09:19:08;;;;;;;4.80;1.60;;;11.00;98.00;;;;;;5031686;28;20463;-64
2023/04/12 09:21:35;;;;;;;1.40;1.20;;;11.00;98.00;;;;;;5031497;28;20469;-65
2023/04/12 09:24:04;;;;;;;1.40;1.30;;;11.00;98.00;;;;;;5030360;28;20466;-64
2023/04/12 09:26:33;;;;;;;2.17;1.30;;;11.10;98.00;;;;;;5031745;28;20884;-64
2023/04/12 09:29:00;;;;;;;1.50;1.30;;;11.00;98.00;;;;;;5031857;28;20562;-64
2023/04/12 09:31:27;;;;;;;3.97;1.83;;;11.00;98.00;;;;;;5030590;28;20559;-65
2023/04/12 09:34:18;;;;;;;2.13;1.30;;;11.10;98.00;;;;;;5031340;28;20458;-64
2023/04/12 09:36:45;;;;;;;2.00;1.50;;;11.20;98.00;;;;;;5028943;28;21008;-64
2023/04/12 09:39:12;;;;;;;4.50;1.30;;;11.20;98.00;;;;;;5031537;28;20467;-67
2023/04/12 09:41:41;;;;;;;1.50;1.40;;;11.30;98.00;;;;;;5031389;28;20461;-65
2023/04/12 09:44:08;;;;;;;6.30;1.60;;;11.40;98.00;;;;;;5030170;28;20473;-64
2023/04/12 09:46:35;;;;;;;1.70;1.10;;;11.40;98.00;;;;;;5031557;28;20471;-64
2023/04/12 09:49:04;;;;;;;3.33;1.40;;;11.50;98.00;;;;;;5031557;28;20484;-64
2023/04/12 09:51:34;;;;;;;5.13;1.87;;;11.50;98.00;;;;;;5031544;28;20556;-64
2023/04/12 09:54:02;;;;;;;2.57;1.50;;;11.60;98.00;;;;;;5030903;28;20451;-64
2023/04/12 09:56:32;;;;;;;1.77;1.40;;;11.60;98.00;;;;;;5031534;28;20719;-63
2023/04/12 09:59:04;;;;;;;2.43;1.57;;;11.70;98.00;;;;;;5031161;28;20487;-64
2023/04/12 10:01:35;;;;;;;2.13;1.57;;;11.70;98.00;;;;;;5031261;28;20460;-64
2023/04/12 10:04:03;;;;;;;2.90;1.50;;;11.70;98.00;;;;;;5045306;28;20802;-65
2023/04/12 10:06:31;;;;;;;1.80;1.40;;;11.80;98.00;;;;;;5050917;28;20447;-64
2023/04/12 10:09:01;;;;;;;2.43;1.57;;;11.80;98.00;;;;;;5050756;28;20488;-64
2023/04/12 10:11:29;;;;;;;2.13;1.40;;;11.80;98.00;;;;;;5051061;28;20489;-65
2023/04/12 10:13:59;;;;;;;2.20;1.50;;;11.80;98.00;;;;;;5050961;28;20467;-64
2023/04/12 10:16:28;;;;;;;1.70;1.53;;;11.80;98.00;;;;;;5051316;28;20826;-64
2023/04/12 10:18:55;;;;;;;1.57;1.33;;;11.80;98.00;;;;;;5050695;28;20458;-64
2023/04/12 10:21:23;;;;;;;2.40;1.37;;;11.80;98.00;;;;;;5054802;28;20596;-64
2023/04/12 10:23:52;;;;;;;2.00;1.40;;;11.90;98.00;;;;;;5054879;28;20538;-64
2023/04/12 10:26:19;;;;;;;2.33;1.50;;;12.00;98.00;;;;;;5054851;28;20463;-64
2023/04/12 10:29:12;;;;;;;3.23;1.40;;;12.10;98.00;;;;;;5054463;28;20480;-64
2023/04/12 10:31:42;;;;;;;1.93;1.30;;;12.20;98.00;;;;;;5054882;28;20824;-62
2023/04/12 10:37:13;;;;;;;2.17;1.60;;;12.30;98.00;;;;;;5054651;28;20462;-64
2023/04/12 10:39:48;;;;;;;2.17;1.83;;;12.40;98.00;;;;;;5053233;28;20974;-64
2023/04/12 10:42:26;;;;;;;2.20;1.60;;;12.40;98.00;;;;;;5054583;28;20456;-64
2023/04/12 10:45:13;;;;;;;2.30;1.57;;;12.60;98.00;;;;;;5054542;28;21042;-63
2023/04/12 10:48:02;;;;;;;2.23;1.47;;;12.60;98.00;;;;;;5054568;28;20530;-62
2023/04/12 10:50:32;;;;;;;1.60;1.30;;;12.60;98.00;;;;;;5054407;28;20449;-62
2023/04/12 10:53:23;;;;;;;2.20;1.43;;;12.80;98.00;;;;;;5052766;28;20474;-61
2023/04/12 10:55:51;;;;;;;1.77;1.57;;;12.80;98.00;;;;;;5054440;28;21006;-64
2023/04/12 10:58:58;;;;;;;1.90;1.40;;;12.90;98.00;;;;;;5054192;28;20471;-64
2023/04/12 11:01:26;;;;;;;1.90;1.53;;;13.10;98.00;;;;;;5049365;28;20854;-64
2023/04/12 11:04:13;;;;;;;5.60;1.70;;;13.20;98.00;;;;;;5052650;28;20981;-64
2023/04/12 11:06:55;;;;;;;1.53;1.20;;;13.30;98.00;;;;;;5053966;28;20502;-65
2023/04/12 11:09:24;;;;;;;2.47;1.70;;;13.30;98.00;;;;;;5052731;28;20483;-65
2023/04/12 11:11:52;;;;;;;2.40;1.63;;;13.30;98.00;;;;;;5054396;28;20471;-64
2023/04/12 11:14:27;;;;;;;7.07;1.70;;;13.30;98.00;;;;;;5054151;28;20571;-62
2023/04/12 11:17:22;;;;;;;1.53;1.43;;;13.40;98.00;;;;;;5053851;28;20511;-62
2023/04/12 11:19:54;;;;;;;2.80;1.63;;;13.50;98.00;;;;;;5052583;28;20461;-66
2023/04/12 11:22:23;;;;;;;2.07;1.63;;;13.70;98.00;;;;;;5053375;28;20881;-63
2023/04/12 11:24:54;;;;;;;1.80;1.50;;;13.90;98.00;;;;;;5052603;28;20461;-65
2023/04/12 11:27:22;;;;;;;3.10;1.53;;;14.00;98.00;;;;;;5053359;28;20911;-65
2023/04/12 11:29:51;;;;;;;1.67;1.50;;;14.10;98.00;;;;;;5053602;28;20484;-64
2023/04/12 11:32:18;;;;;;;2.37;1.60;;;14.20;98.00;;;;;;5052593;28;20462;-64
2023/04/12 11:34:46;;;;;;;1.50;1.20;;;14.20;98.00;;;;;;5053486;28;20560;-65
2023/04/12 11:37:15;;;;;;;2.10;1.53;;;14.10;98.00;;;;;;5053700;28;20518;-64
2023/04/12 11:39:44;;;;;;;1.97;1.30;;;14.20;98.00;;;;;;5053291;28;20498;-65
2023/04/12 11:42:15;;;;;;;1.50;1.40;;;14.20;98.00;;;;;;5053603;28;20940;-65
2023/04/12 11:44:44;;;;;;;1.30;1.20;;;14.20;98.00;;;;;;5053654;28;20450;-65
2023/04/12 11:47:16;;;;;;;3.57;1.70;;;14.20;98.00;;;;;;5053714;28;20866;-65
2023/04/12 11:49:49;;;;;;;1.57;1.50;;;14.30;98.00;;;;;;5053340;28;21088;-65
2023/04/12 11:52:19;;;;;;;1.70;1.43;;;14.30;98.00;;;;;;5053459;28;20604;-66
2023/04/12 11:54:48;;;;;;;2.07;1.47;;;14.20;98.00;;;;;;5051794;28;20531;-65
2023/04/12 11:57:17;;;;;;;1.60;1.27;;;14.10;98.00;;;;;;5051996;28;20991;-64
2023/04/12 11:59:45;;;;;;;1.90;1.40;;;14.10;98.00;;;;;;5052886;28;20453;-62
2023/04/12 12:02:13;;;;;;;3.83;1.37;;;14.10;98.00;;;;;;5053100;28;20465;-64
2023/04/12 12:04:42;;;;;;;1.40;1.30;;;14.20;98.00;;;;;;5051917;28;20456;-65
2023/04/12 12:07:12;;;;;;;2.17;1.30;;;14.20;98.00;;;;;;5053061;28;20465;-64
2023/04/12 12:09:41;;;;;;;1.90;1.50;;;14.20;98.00;;;;;;5052761;28;20491;-65
2023/04/12 12:12:11;;;;;;;1.70;1.40;;;14.20;98.00;;;;;;5052817;28;20469;-64
2023/04/12 12:14:39;;;;;;;3.87;1.33;;;14.20;98.00;;;;;;5052763;28;20464;-64
2023/04/12 12:17:11;;;;;;;1.60;1.20;;;14.30;98.00;;;;;;5052907;28;20480;-64
2023/04/12 12:19:39;;;;;;;1.60;1.20;;;14.40;98.00;;;;;;5052712;28;20463;-65
2023/04/12 12:22:17;;;;;;;1.90;1.27;;;14.40;98.00;;;;;;5052976;28;20446;-63
2023/04/12 12:24:51;;;;;;;1.20;1.10;;;14.50;98.00;;;;;;5052505;28;20468;-65
2023/04/12 12:27:20;;;;;;;1.80;1.30;;;14.50;98.00;;;;;;5052609;28;20911;-65
2023/04/12 12:29:52;;;;;;;1.50;1.47;;;14.50;98.00;;;;;;5052327;28;20533;-65
2023/04/12 12:32:20;;;;;;;2.13;1.30;;;14.60;98.00;;;;;;5052630;28;20512;-64
2023/04/12 12:34:53;;;;;;;1.67;1.20;;;14.70;98.00;;;;;;5052374;28;20543;-64
2023/04/12 12:37:23;;;;;;;1.73;1.50;;;14.60;98.00;;;;;;5052469;28;20530;-64
2023/04/12 12:40:12;;;;;;;1.60;1.20;;;14.60;98.00;;;;;;5052342;28;20464;-64
2023/04/12 12:42:48;;;;;;;1.77;1.27;;;14.80;98.00;;;;;;5052414;28;20964;-64
2023/04/12 12:45:17;;;;;;;1.50;1.10;;;14.80;98.00;;;;;;5052421;28;20469;-64
2023/04/12 12:47:53;;;;;;;1.40;1.10;;;14.90;98.00;;;;;;5052418;28;20483;-65
2023/04/12 12:50:24;;;;;;;1.67;1.20;;;15.00;98.00;;;;;;5052205;28;20480;-65
2023/04/12 12:52:52;;;;;;;3.40;1.27;;;14.90;98.00;;;;;;5052174;28;20457;-64
2023/04/12 12:55:21;;;;;;;1.67;1.30;;;15.00;98.00;;;;;;5051968;28;20449;-65
2023/04/12 12:57:53;;;;;;;1.23;1.03;;;15.10;98.00;;;;;;5052168;28;21021;-65
2023/04/12 13:00:25;;;;;;;1.20;1.10;;;15.10;98.00;;;;;;5052003;28;20521;-64
2023/04/12 13:02:52;;;;;;;1.40;1.10;;;15.30;98.00;;;;;;5052576;28;20539;-65
2023/04/12 13:05:20;;;;;;;1.23;1.00;;;15.40;98.00;;;;;;5052650;28;20457;-64
2023/04/12 13:07:47;;;;;;;1.40;1.30;;;15.40;98.00;;;;;;5052317;28;20458;-65